Time;durP1;ratioP1;P1;durP2;ratioP2;P2;SDS_P1;SDS_P2;PMS_P1;PMS_P2;Temp;Humidity;BMP_temperature;BMP_pressure;BME280_temperature;BME280_humidity;BME280_pressure;Samples;Min_cycle;Max_cycle;Signal;HPM_P1;HPM_P2
2023/03/20 00:01:36;;;;;;;56.65;26.35;;;;;;;8.97;77.30;100614.25;10183599;29;20044;-79
2023/03/20 00:06:38;;;;;;;57.67;27.13;;;;;;;8.79;77.41;100619.06;10201077;29;20474;-79
2023/03/20 00:11:47;;;;;;;59.97;25.67;;;;;;;8.72;77.79;100624.94;10203625;29;20044;-79
2023/03/20 00:16:51;;;;;;;55.45;24.88;;;;;;;8.75;77.67;100640.81;10198280;29;20052;-78
2023/03/20 00:21:56;;;;;;;56.80;26.63;;;;;;;8.64;77.89;100632.66;10198758;29;20043;-79
2023/03/20 00:27:01;;;;;;;58.45;26.65;;;;;;;8.53;78.36;100631.59;10199126;29;20044;-78
2023/03/20 00:32:08;;;;;;;50.75;24.40;;;;;;;8.43;78.69;100649.22;10195739;29;20052;-78
2023/03/20 00:37:11;;;;;;;55.55;25.95;;;;;;;8.46;78.92;100638.31;10175338;29;20103;-79
2023/03/20 00:42:21;;;;;;;65.85;27.85;;;;;;;8.60;78.59;100630.19;10196070;29;20048;-80
2023/03/20 00:47:25;;;;;;;59.22;26.40;;;;;;;8.52;78.71;100624.50;10195325;29;20095;-80
2023/03/20 00:52:29;;;;;;;56.28;24.00;;;;;;;8.42;79.62;100625.22;10182583;29;20414;-80
2023/03/20 00:57:39;;;;;;;52.95;22.90;;;;;;;8.26;80.31;100623.59;10192118;29;20052;-79
2023/03/20 01:02:42;;;;;;;54.97;23.55;;;;;;;8.30;79.88;100638.47;10192107;29;20496;-79
2023/03/20 01:07:45;;;;;;;55.10;23.58;;;;;;;8.35;80.19;100641.69;10186709;29;20047;-80
2023/03/20 01:12:49;;;;;;;55.97;24.90;;;;;;;8.31;79.90;100631.28;10202242;29;20103;-81
2023/03/20 01:17:52;;;;;;;54.13;23.67;;;;;;;8.39;79.89;100640.53;10186303;29;20055;-80
2023/03/20 01:22:55;;;;;;;54.03;24.20;;;;;;;8.40;79.60;100636.88;10174772;29;20047;-80
2023/03/20 01:28:00;;;;;;;56.65;25.48;;;;;;;8.52;79.61;100616.47;10198268;29;20036;-79
2023/03/20 01:33:13;;;;;;;61.10;24.23;;;;;;;8.65;79.31;100612.97;10198727;29;20044;-79
2023/03/20 01:38:20;;;;;;;56.80;23.58;;;;;;;8.69;78.59;100625.16;10198318;29;20410;-80
2023/03/20 01:43:27;;;;;;;56.25;22.38;;;;;;;8.66;78.23;100630.75;10203042;29;20051;-78
2023/03/20 01:48:55;;;;;;;51.65;22.05;;;;;;;8.49;78.38;100643.47;10185406;29;20526;-79
2023/03/20 01:54:04;;;;;;;47.70;21.15;;;;;;;8.38;78.52;100649.50;10190678;29;20475;-80
2023/03/20 01:59:16;;;;;;;54.08;21.88;;;;;;;7.90;80.12;100680.41;10188314;29;20485;-80
2023/03/20 02:04:25;;;;;;;54.08;22.98;;;;;;;7.90;81.43;100685.75;10184928;29;20084;-79
2023/03/20 02:09:35;;;;;;;55.35;21.88;;;;;;;7.60;82.17;100686.78;10177105;29;20056;-79
2023/03/20 02:14:46;;;;;;;56.40;24.55;;;;;;;7.76;81.48;100680.41;10187847;29;20480;-79
2023/03/20 02:20:08;;;;;;;62.83;24.98;;;;;;;7.84;81.13;100664.72;10189739;29;20617;-79
2023/03/20 02:25:46;;;;;;;59.15;25.25;;;;;;;8.02;80.36;100673.38;10205353;29;20038;-79
2023/03/20 02:31:07;;;;;;;63.17;24.25;;;;;;;7.85;81.68;100669.16;10160738;29;20484;-79
2023/03/20 02:36:50;;;;;;;63.97;24.75;;;;;;;7.95;81.51;100672.91;10191532;29;20043;-80
2023/03/20 02:42:02;;;;;;;66.90;25.88;;;;;;;7.98;81.48;100655.81;10183334;29;20047;-79
2023/03/20 02:47:11;;;;;;;68.90;26.85;;;;;;;7.96;81.85;100650.56;10167294;29;20048;-80
2023/03/20 02:52:20;;;;;;;68.18;29.00;;;;;;;8.11;81.23;100651.38;10196059;29;20059;-78
2023/03/20 02:57:38;;;;;;;67.25;27.60;;;;;;;7.92;82.20;100646.38;10185706;29;20480;-78
2023/03/20 03:02:50;;;;;;;69.53;28.40;;;;;;;8.04;81.79;100648.25;10173044;29;20048;-79
2023/03/20 03:07:58;;;;;;;65.78;25.65;;;;;;;7.96;81.99;100655.94;10185097;29;20052;-79
2023/03/20 03:13:06;;;;;;;72.95;28.05;;;;;;;7.78;83.69;100667.81;10185742;29;20130;-79
2023/03/20 03:18:14;;;;;;;71.22;29.27;;;;;;;7.71;83.54;100675.38;10193873;29;20040;-80
2023/03/20 03:23:27;;;;;;;79.32;29.42;;;;;;;7.60;84.58;100668.06;10203903;29;20079;-80
2023/03/20 03:28:36;;;;;;;76.07;27.08;;;;;;;7.63;84.62;100670.53;10186037;29;20076;-79
2023/03/20 03:33:40;;;;;;;77.20;30.45;;;;;;;8.01;82.91;100667.19;10201897;29;20048;-79
2023/03/20 03:38:51;;;;;;;86.28;32.13;;;;;;;8.25;81.66;100661.16;10180715;29;20047;-79
2023/03/20 03:44:05;;;;;;;71.68;30.73;;;;;;;7.87;83.19;100665.41;10185198;29;20044;-80
2023/03/20 03:49:13;;;;;;;84.32;32.65;;;;;;;7.91;83.06;100668.75;10181554;29;20058;-77
2023/03/20 03:54:22;;;;;;;84.25;32.50;;;;;;;8.09;81.96;100664.88;10176615;29;20521;-76
2023/03/20 03:59:50;;;;;;;78.00;30.08;;;;;;;8.19;81.41;100651.72;10191613;29;20412;-78
2023/03/20 04:04:55;;;;;;;73.38;30.13;;;;;;;7.76;82.48;100648.31;10178957;29;20523;-79
2023/03/20 04:09:57;;;;;;;72.82;28.60;;;;;;;7.64;82.97;100648.16;10176299;29;20087;-77
2023/03/20 04:15:02;;;;;;;74.35;29.58;;;;;;;7.83;81.79;100641.63;10197795;29;20047;-79
2023/03/20 04:20:09;;;;;;;64.47;30.63;;;;;;;8.00;80.80;100622.66;10195994;29;20396;-79
2023/03/20 04:25:17;;;;;;;66.53;27.25;;;;;;;8.23;79.57;100614.88;10187919;29;20060;-79
2023/03/20 04:30:22;;;;;;;59.45;23.35;;;;;;;7.71;80.41;100629.94;10202161;29;20048;-79
2023/03/20 04:35:50;;;;;;;57.63;27.25;;;;;;;7.86;79.90;100617.34;10169127;29;20044;-78
2023/03/20 04:40:53;;;;;;;58.83;26.15;;;;;;;7.99;79.95;100622.75;10195292;29;20048;-78
2023/03/20 04:45:57;;;;;;;64.95;28.00;;;;;;;7.82;80.29;100622.06;10197130;29;20048;-78
2023/03/20 04:51:00;;;;;;;58.92;25.08;;;;;;;7.85;79.73;100621.00;10190203;29;20067;-80
2023/03/20 04:56:15;;;;;;;53.53;26.35;;;;;;;7.61;80.04;100618.09;10194392;29;20048;-80
2023/03/20 05:01:20;;;;;;;56.65;25.55;;;;;;;7.53;80.01;100629.28;10178665;29;20539;-79
2023/03/20 05:06:23;;;;;;;54.25;26.40;;;;;;;7.44;79.91;100640.59;10170465;29;20051;-79
2023/03/20 05:11:26;;;;;;;44.92;22.10;;;;;;;7.26;78.87;100640.78;10181021;29;20111;-79
2023/03/20 05:16:46;;;;;;;51.83;22.77;;;;;;;7.47;78.69;100637.72;10178193;29;20040;-79
2023/03/20 05:21:57;;;;;;;41.88;21.90;;;;;;;7.48;78.01;100632.25;10173124;29;20047;-80
2023/03/20 05:27:06;;;;;;;40.95;17.85;;;;;;;7.29;78.04;100634.38;10185118;29;20099;-78
2023/03/20 05:32:25;;;;;;;41.88;19.20;;;;;;;7.17;78.12;100637.84;10166024;29;20059;-80
2023/03/20 05:37:54;;;;;;;44.38;21.13;;;;;;;7.37;77.72;100649.94;10182542;29;20068;-79
2023/03/20 05:43:05;;;;;;;37.22;19.10;;;;;;;7.36;77.27;100653.56;10181113;29;20423;-79
2023/03/20 05:48:25;;;;;;;36.58;16.60;;;;;;;6.98;78.38;100648.81;10181585;29;20459;-79
2023/03/20 05:53:53;;;;;;;36.72;17.05;;;;;;;7.19;77.33;100654.66;10186646;29;20052;-79
2023/03/20 05:59:14;;;;;;;41.05;19.92;;;;;;;7.16;77.76;100655.69;10180861;29;20131;-79
2023/03/20 06:04:47;;;;;;;46.33;20.02;;;;;;;7.32;77.49;100654.72;10145576;29;20136;-80
2023/03/20 06:09:56;;;;;;;43.15;21.10;;;;;;;7.09;78.17;100657.03;10178719;29;20103;-80
2023/03/20 06:15:00;;;;;;;46.05;22.60;;;;;;;7.23;77.91;100666.84;10171163;29;20389;-79
2023/03/20 06:20:10;;;;;;;39.67;18.45;;;;;;;7.23;77.78;100665.03;10197584;29;20507;-79
2023/03/20 06:25:13;;;;;;;39.78;18.52;;;;;;;7.62;76.25;100658.09;10186114;29;20051;-79
2023/03/20 06:30:19;;;;;;;42.72;21.20;;;;;;;7.52;76.12;100670.38;10178379;29;20103;-79
2023/03/20 06:35:23;;;;;;;41.33;19.45;;;;;;;7.41;76.57;100668.38;10188625;29;20044;-79
2023/03/20 06:40:27;;;;;;;44.95;22.58;;;;;;;7.73;75.62;100658.28;10178145;29;20620;-79
2023/03/20 06:45:30;;;;;;;39.15;20.85;;;;;;;7.78;75.24;100667.81;10196237;29;20052;-78
2023/03/20 06:50:37;;;;;;;40.45;22.35;;;;;;;8.01;74.15;100671.66;10206083;29;20508;-79
2023/03/20 06:55:41;;;;;;;43.47;21.83;;;;;;;7.67;75.32;100674.72;10170525;29;20048;-80
2023/03/20 07:00:45;;;;;;;31.77;16.40;;;;;;;7.61;74.97;100683.13;10182171;29;20052;-77
2023/03/20 07:05:50;;;;;;;34.58;18.77;;;;;;;7.63;75.00;100675.88;10192809;29;20076;-79
2023/03/20 07:10:54;;;;;;;40.63;20.58;;;;;;;7.81;74.88;100689.00;10174565;29;20079;-78
2023/03/20 07:15:58;;;;;;;39.00;21.05;;;;;;;7.48;75.44;100695.56;10207066;29;20496;-80
2023/03/20 07:21:19;;;;;;;43.17;21.80;;;;;;;7.23;75.46;100701.59;10182881;29;20130;-78
2023/03/20 07:26:22;;;;;;;41.83;21.15;;;;;;;7.32;75.06;100703.66;10181068;29;20051;-78
2023/03/20 07:31:27;;;;;;;40.58;20.83;;;;;;;7.28;75.22;100716.38;10191566;29;20048;-80
2023/03/20 07:36:48;;;;;;;43.35;20.60;;;;;;;7.21;75.16;100707.03;10139831;29;20063;-78
2023/03/20 07:41:54;;;;;;;35.50;19.40;;;;;;;7.50;74.71;100710.53;10139481;29;20075;-78
2023/03/20 07:47:11;;;;;;;36.33;19.02;;;;;;;7.56;73.85;100706.63;10145853;29;20515;-79
2023/03/20 07:52:16;;;;;;;39.95;21.52;;;;;;;7.41;74.23;100710.28;10154000;29;20051;-80
2023/03/20 07:57:19;;;;;;;31.42;16.25;;;;;;;7.50;72.13;100725.72;10149268;29;20178;-80
2023/03/20 08:02:22;;;;;;;31.55;17.38;;;;;;;7.68;72.56;100723.72;10147926;29;20054;-79
2023/03/20 08:07:28;;;;;;;33.33;14.45;;;;;;;7.47;72.62;100718.75;10156308;29;20066;-79
2023/03/20 08:12:31;;;;;;;26.17;12.45;;;;;;;7.65;71.10;100724.78;10165922;29;20051;-79
2023/03/20 08:17:34;;;;;;;22.48;13.07;;;;;;;7.54;70.81;100729.91;10161577;29;20058;-79
2023/03/20 08:22:38;;;;;;;24.33;14.07;;;;;;;7.64;70.25;100720.38;10159867;29;20051;-79
2023/03/20 08:27:41;;;;;;;24.88;15.40;;;;;;;8.27;68.30;100732.34;10166581;29;20059;-78
2023/03/20 08:32:44;;;;;;;21.70;11.50;;;;;;;8.19;67.43;100734.66;10161000;29;20054;-79
2023/03/20 08:37:48;;;;;;;26.08;16.13;;;;;;;8.32;67.38;100727.56;10167713;29;20146;-78
2023/03/20 08:42:51;;;;;;;28.20;17.10;;;;;;;9.00;65.40;100737.28;10172489;29;20043;-78
2023/03/20 08:47:54;;;;;;;24.25;13.45;;;;;;;8.09;67.62;100747.81;10154802;29;20087;-78
2023/03/20 08:52:58;;;;;;;17.80;10.35;;;;;;;7.99;66.84;100751.19;10159893;29;20151;-79
2023/03/20 08:58:01;;;;;;;17.63;11.10;;;;;;;7.98;67.32;100744.97;10150797;29;20512;-78
2023/03/20 09:03:04;;;;;;;18.85;12.30;;;;;;;8.65;65.23;100725.44;10147962;29;20713;-78
2023/03/20 09:08:08;;;;;;;22.30;11.73;;;;;;;8.80;64.82;100729.75;10156417;29;20044;-79
2023/03/20 09:13:11;;;;;;;17.95;11.40;;;;;;;8.52;64.97;100733.44;10149780;29;20134;-79
2023/03/20 09:18:29;;;;;;;13.85;7.13;;;;;;;8.58;62.70;100725.88;10161144;29;20047;-78
2023/03/20 09:23:33;;;;;;;13.77;8.35;;;;;;;8.35;63.06;100739.88;10154727;29;20047;-78
2023/03/20 09:28:36;;;;;;;12.27;8.57;;;;;;;8.03;64.33;100742.84;10148701;29;20099;-78
2023/03/20 09:33:38;;;;;;;15.13;9.68;;;;;;;8.34;63.31;100755.09;10158242;29;20515;-80
2023/03/20 09:38:43;;;;;;;13.85;8.88;;;;;;;8.35;62.15;100756.78;10165128;29;20138;-80
2023/03/20 09:43:57;;;;;;;14.63;9.95;;;;;;;7.99;63.45;100759.19;10149960;29;20059;-79
2023/03/20 09:49:12;;;;;;;20.17;10.05;;;;;;;8.56;62.70;100757.22;10156954;29;20066;-79
2023/03/20 09:54:24;;;;;;;17.75;11.30;;;;;;;8.83;61.55;100764.34;10159239;29;20067;-78
2023/03/20 09:59:28;;;;;;;18.20;11.93;;;;;;;8.59;62.11;100765.06;10159102;29;20052;-80
2023/03/20 10:04:30;;;;;;;26.80;14.77;;;;;;;9.33;61.64;100762.72;10162969;29;20199;-78
2023/03/20 10:09:35;;;;;;;19.98;13.15;;;;;;;9.09;60.58;100751.03;10155008;29;20052;-78
2023/03/20 10:14:47;;;;;;;18.75;12.57;;;;;;;8.34;62.17;100765.78;10175196;29;20071;-78
2023/03/20 10:19:53;;;;;;;20.17;13.52;;;;;;;9.34;59.94;100750.16;10167801;29;20423;-78
2023/03/20 10:25:07;;;;;;;20.15;12.68;;;;;;;9.14;61.05;100747.06;10167587;29;20134;-78
2023/03/20 10:30:31;;;;;;;15.95;10.18;;;;;;;8.65;60.16;100747.72;10171720;29;20523;-78
2023/03/20 10:35:39;;;;;;;20.77;11.57;;;;;;;8.74;59.84;100743.56;10151381;29;20054;-79
2023/03/20 10:40:44;;;;;;;16.40;10.38;;;;;;;8.58;61.23;100741.94;10160764;29;21291;-79
2023/03/20 10:45:50;;;;;;;16.25;9.45;;;;;;;8.65;59.79;100738.84;10168993;29;20053;-78
2023/03/20 10:50:55;;;;;;;22.85;12.05;;;;;;;8.65;60.21;100725.44;10164619;29;20051;-78
2023/03/20 10:56:05;;;;;;;19.27;12.23;;;;;;;9.21;59.29;100717.97;10165393;29;21429;-78
2023/03/20 11:01:08;;;;;;;18.42;11.75;;;;;;;9.41;57.96;100720.13;10171714;29;20849;-79
2023/03/20 11:06:18;;;;;;;17.42;12.25;;;;;;;9.37;58.00;100721.31;10158849;29;20082;-79
2023/03/20 11:11:28;;;;;;;22.92;13.20;;;;;;;9.22;58.85;100709.00;10163691;29;20052;-78
2023/03/20 11:16:35;;;;;;;15.50;10.25;;;;;;;9.00;58.72;100689.06;10155932;29;20056;-81
2023/03/20 11:21:46;;;;;;;19.40;9.15;;;;;;;9.21;56.71;100691.19;10165959;29;20055;-80
2023/03/20 11:26:51;;;;;;;11.73;7.13;;;;;;;9.04;56.33;100690.53;10169689;29;20052;-78
2023/03/20 11:32:02;;;;;;;13.98;8.85;;;;;;;9.44;55.52;100692.25;10155985;29;20173;-79
2023/03/20 11:37:20;;;;;;;13.10;8.73;;;;;;;10.16;53.40;100687.88;10155674;29;20155;-79
2023/03/20 11:42:27;;;;;;;15.38;9.85;;;;;;;10.12;53.42;100689.06;10133670;29;20051;-80
2023/03/20 11:47:33;;;;;;;17.65;9.10;;;;;;;9.88;54.05;100683.69;10153744;29;21366;-79
2023/03/20 11:52:39;;;;;;;14.23;8.77;;;;;;;10.00;53.06;100675.69;10157462;29;20048;-80
2023/03/20 11:57:44;;;;;;;16.08;10.82;;;;;;;10.60;53.76;100678.28;10165271;29;20118;-78
2023/03/20 12:02:49;;;;;;;15.77;10.27;;;;;;;10.81;51.33;100661.50;10163361;29;20048;-78
2023/03/20 12:07:57;;;;;;;14.93;11.00;;;;;;;10.49;51.25;100656.75;10154524;29;20055;-79
2023/03/20 12:13:06;;;;;;;18.23;12.57;;;;;;;10.23;53.01;100663.22;10155983;29;20077;-78
2023/03/20 12:18:14;;;;;;;14.48;10.07;;;;;;;10.10;51.44;100655.28;10155829;29;20695;-78
2023/03/20 12:23:24;;;;;;;12.35;9.95;;;;;;;10.02;52.42;100655.84;10153762;29;20052;-79
2023/03/20 12:28:36;;;;;;;11.38;7.78;;;;;;;10.10;52.11;100672.22;10169138;29;20499;-77
2023/03/20 12:33:45;;;;;;;10.60;5.80;;;;;;;10.52;50.52;100664.56;10161183;29;20055;-79
2023/03/20 12:38:48;;;;;;;12.43;5.82;;;;;;;9.62;50.84;100671.28;10134094;29;20060;-78
2023/03/20 12:44:20;;;;;;;5.55;3.17;;;;;;;9.37;52.21;100665.00;10142338;29;20043;-80
2023/03/20 12:49:34;;;;;;;9.13;4.63;;;;;;;9.49;51.83;100658.78;10138317;29;20065;-78
2023/03/20 12:54:51;;;;;;;6.90;4.03;;;;;;;9.15;52.27;100659.47;10159888;29;20059;-79
2023/03/20 13:00:12;;;;;;;6.13;4.50;;;;;;;9.99;50.94;100649.84;10154595;29;20052;-76
2023/03/20 13:05:30;;;;;;;10.20;4.90;;;;;;;10.04;50.69;100639.59;10141945;29;20100;-79
2023/03/20 13:10:37;;;;;;;11.30;6.32;;;;;;;9.97;52.74;100647.25;10157950;29;20056;-78
2023/03/20 13:15:57;;;;;;;8.98;5.88;;;;;;;9.75;52.12;100644.44;10158703;29;20129;-76
2023/03/20 13:21:06;;;;;;;9.88;6.15;;;;;;;9.55;52.92;100667.34;10149956;29;20066;-78
2023/03/20 13:26:21;;;;;;;8.95;4.90;;;;;;;8.74;54.69;100649.81;10162838;29;20070;-79
2023/03/20 13:31:36;;;;;;;7.95;6.18;;;;;;;8.70;54.62;100664.41;10162685;29;20048;-78
2023/03/20 13:36:54;;;;;;;9.75;6.00;;;;;;;8.74;54.53;100656.03;10158109;29;20056;-79
2023/03/20 13:41:59;;;;;;;11.40;6.13;;;;;;;8.78;54.43;100646.81;10168021;29;20131;-78
2023/03/20 13:47:10;;;;;;;8.55;5.63;;;;;;;9.43;53.12;100645.78;10185697;29;20063;-79
2023/03/20 13:52:16;;;;;;;7.45;4.50;;;;;;;9.34;53.09;100632.19;10174775;29;20040;-79
2023/03/20 13:57:28;;;;;;;6.05;4.05;;;;;;;9.45;53.10;100626.91;10160914;29;20048;-79
2023/03/20 14:02:50;;;;;;;7.70;3.80;;;;;;;9.82;51.58;100633.13;10151010;29;20427;-79
2023/03/20 14:07:57;;;;;;;14.53;4.50;;;;;;;9.85;52.04;100619.50;10131141;29;20051;-79
2023/03/20 14:13:01;;;;;;;10.38;4.50;;;;;;;10.07;50.84;100620.59;10160081;29;20127;-78
2023/03/20 14:18:08;;;;;;;8.93;4.13;;;;;;;10.02;51.53;100622.78;10147485;29;20619;-80
2023/03/20 14:23:19;;;;;;;9.25;3.95;;;;;;;9.16;52.91;100631.69;10142463;29;20427;-78
2023/03/20 14:28:27;;;;;;;6.57;3.78;;;;;;;9.10;54.21;100634.81;10159098;29;20083;-78
2023/03/20 14:33:31;;;;;;;9.98;5.00;;;;;;;9.49;53.85;100620.38;10154575;29;20044;-80
2023/03/20 14:38:39;;;;;;;8.85;4.20;;;;;;;8.47;54.83;100613.25;10155996;29;20198;-79
2023/03/20 14:43:57;;;;;;;4.72;3.75;;;;;;;8.56;54.23;100622.50;10129908;29;20044;-80
2023/03/20 14:49:18;;;;;;;6.00;4.80;;;;;;;8.81;55.26;100627.00;10158323;29;20056;-79
2023/03/20 14:54:26;;;;;;;16.65;5.25;;;;;;;8.74;54.64;100623.88;10160813;29;20059;-78
2023/03/20 14:59:32;;;;;;;5.38;4.85;;;;;;;8.45;55.75;100615.16;10161247;29;20048;-79
2023/03/20 15:04:39;;;;;;;8.48;6.90;;;;;;;8.75;55.21;100609.53;10140650;29;20059;-79
2023/03/20 15:09:45;;;;;;;8.98;6.60;;;;;;;8.80;55.69;100615.44;10157301;29;20052;-80
2023/03/20 15:14:55;;;;;;;12.23;8.38;;;;;;;8.30;57.68;100632.25;10163662;29;20133;-78
2023/03/20 15:20:07;;;;;;;11.15;6.43;;;;;;;8.46;56.81;100610.69;10157098;29;20055;-78
2023/03/20 15:25:17;;;;;;;13.65;6.43;;;;;;;8.53;57.45;100620.00;10162510;29;20062;-78
2023/03/20 15:30:21;;;;;;;11.52;6.45;;;;;;;8.44;57.96;100607.22;10148041;29;20051;-78
2023/03/20 15:35:27;;;;;;;10.35;7.22;;;;;;;8.59;58.52;100606.22;10153518;29;20530;-79
2023/03/20 15:40:31;;;;;;;8.38;6.15;;;;;;;8.11;58.45;100609.41;10135313;29;20055;-79
2023/03/20 15:45:55;;;;;;;7.28;6.28;;;;;;;8.15;59.42;100605.56;10138974;29;20040;-80
2023/03/20 15:51:22;;;;;;;10.43;7.47;;;;;;;8.31;60.07;100602.72;10120196;29;20054;-78
2023/03/20 15:56:27;;;;;;;10.13;7.60;;;;;;;7.98;61.33;100602.31;10137278;29;20060;-79
2023/03/20 16:01:32;;;;;;;12.00;7.30;;;;;;;7.85;61.26;100596.94;10144732;29;20055;-79
2023/03/20 16:06:46;;;;;;;8.10;7.28;;;;;;;8.18;60.66;100601.84;10142603;29;20052;-77
2023/03/20 16:11:56;;;;;;;5.95;5.30;;;;;;;7.96;60.80;100599.75;10143328;29;20059;-79
2023/03/20 16:17:02;;;;;;;8.25;5.72;;;;;;;8.26;59.67;100582.59;10151416;29;20044;-79
2023/03/20 16:22:17;;;;;;;12.82;6.38;;;;;;;7.93;60.23;100595.47;10155844;29;20788;-79
2023/03/20 16:27:26;;;;;;;13.32;7.60;;;;;;;8.40;59.67;100590.53;10129431;29;20153;-78
2023/03/20 16:32:37;;;;;;;18.73;8.70;;;;;;;8.41;59.24;100586.88;10156644;29;20050;-80
2023/03/20 16:37:48;;;;;;;6.93;4.28;;;;;;;8.00;60.28;100595.91;10137541;29;20051;-79
2023/03/20 16:42:53;;;;;;;6.18;4.47;;;;;;;7.89;61.21;100591.25;10138964;29;20048;-80
2023/03/20 16:48:21;;;;;;;8.18;4.20;;;;;;;8.15;60.17;100586.00;10139901;29;20064;-79
2023/03/20 16:53:29;;;;;;;8.18;4.72;;;;;;;7.97;61.21;100590.75;10144433;29;20068;-80
2023/03/20 16:58:38;;;;;;;7.28;4.68;;;;;;;8.10;61.22;100598.81;10153444;29;20048;-79
2023/03/20 17:03:48;;;;;;;7.70;4.25;;;;;;;8.19;61.39;100587.50;10140842;29;20043;-77
2023/03/20 17:08:54;;;;;;;11.55;4.78;;;;;;;8.26;61.70;100587.94;10143952;29;20059;-79
2023/03/20 17:13:57;;;;;;;13.00;5.20;;;;;;;7.93;62.45;100599.97;10144663;29;20592;-79
2023/03/20 17:19:01;;;;;;;8.02;5.03;;;;;;;7.73;63.61;100602.13;10136653;29;20047;-79
2023/03/20 17:24:06;;;;;;;9.05;5.55;;;;;;;8.03;62.81;100595.69;10130331;29;20193;-79
2023/03/20 17:29:10;;;;;;;11.68;5.43;;;;;;;7.98;63.36;100608.53;10150065;29;20058;-79
2023/03/20 17:34:14;;;;;;;8.02;5.80;;;;;;;7.93;63.39;100599.97;10126156;29;20186;-78
2023/03/20 17:39:20;;;;;;;13.85;7.15;;;;;;;7.88;63.57;100607.41;10150771;29;20055;-79
2023/03/20 17:44:23;;;;;;;10.85;6.95;;;;;;;7.91;64.49;100609.88;10146855;29;21100;-79
2023/03/20 17:49:26;;;;;;;9.57;8.43;;;;;;;8.11;64.06;100611.22;10155187;29;20052;-78
2023/03/20 17:54:31;;;;;;;13.73;8.38;;;;;;;7.64;66.15;100620.59;10161690;29;20048;-79
2023/03/20 17:59:35;;;;;;;11.98;8.70;;;;;;;7.88;65.21;100613.63;10146909;29;20059;-77
2023/03/20 18:04:37;;;;;;;14.70;9.27;;;;;;;7.55;66.30;100626.53;10150914;29;20055;-78
2023/03/20 18:09:43;;;;;;;17.00;9.68;;;;;;;7.45;66.12;100631.59;10150882;29;20077;-78
2023/03/20 18:14:46;;;;;;;10.20;7.55;;;;;;;6.93;67.05;100645.56;10142000;29;20141;-80
2023/03/20 18:19:49;;;;;;;15.13;9.27;;;;;;;7.38;66.53;100627.63;10146903;29;20040;-79
2023/03/20 18:24:53;;;;;;;14.02;8.65;;;;;;;7.08;67.26;100635.75;10158349;29;20044;-78
2023/03/20 18:29:56;;;;;;;14.77;10.35;;;;;;;7.22;67.61;100641.09;10153354;29;20115;-79
2023/03/20 18:34:59;;;;;;;11.15;8.40;;;;;;;6.85;69.37;100637.97;10157148;29;20048;-81
2023/03/20 18:40:06;;;;;;;12.63;8.65;;;;;;;6.50;71.98;100640.13;10147273;29;20088;-79
2023/03/20 18:45:10;;;;;;;18.70;10.38;;;;;;;6.82;73.52;100636.34;10155628;29;20146;-79
2023/03/20 18:50:23;;;;;;;19.95;11.48;;;;;;;6.73;73.20;100636.09;10155786;29;20047;-79
2023/03/20 18:55:27;;;;;;;;;;;;;;;7.01;72.84;100625.44;10152880;29;20047;-80
2023/03/20 19:00:36;;;;;;;19.42;12.65;;;;;;;7.16;71.49;100630.75;10158402;29;20059;-78
2023/03/20 19:05:39;;;;;;;20.50;11.13;;;;;;;6.95;71.61;100625.81;10161750;29;20064;-80
2023/03/20 19:10:44;;;;;;;20.88;12.88;;;;;;;7.30;70.95;100627.25;10164645;29;20054;-81
2023/03/20 19:15:47;;;;;;;16.35;11.95;;;;;;;6.96;73.13;100632.88;10136369;29;20054;-81
2023/03/20 19:20:51;;;;;;;36.85;12.73;;;;;;;6.85;72.66;100627.31;10144303;29;20056;-80
2023/03/20 19:25:56;;;;;;;22.02;13.90;;;;;;;6.77;74.83;100638.44;10132148;29;20058;-80
2023/03/20 19:30:59;;;;;;;25.55;12.65;;;;;;;6.62;76.79;100626.06;10159599;29;20496;-80
2023/03/20 19:36:03;;;;;;;31.42;16.27;;;;;;;6.51;77.27;100618.69;10142448;29;20078;-81
2023/03/20 19:41:08;;;;;;;24.80;13.48;;;;;;;6.42;78.12;100623.72;10139138;29;20067;-82
2023/03/20 19:46:15;;;;;;;37.17;20.35;;;;;;;6.08;80.09;100626.56;10142851;29;20053;-80
2023/03/20 19:51:37;;;;;;;36.53;18.17;;;;;;;6.55;78.25;100624.69;10140624;29;20052;-80
2023/03/20 19:56:42;;;;;;;31.60;18.98;;;;;;;6.49;78.46;100611.72;10144320;29;20134;-78
2023/03/20 20:01:45;;;;;;;31.48;16.60;;;;;;;6.26;78.94;100613.97;10150882;29;20044;-80
2023/03/20 20:06:48;;;;;;;23.85;13.07;;;;;;;6.73;77.62;100604.91;10148057;29;20511;-81
2023/03/20 20:11:53;;;;;;;43.10;26.95;;;;;;;6.71;77.85;100611.28;10142151;29;20055;-80
2023/03/20 20:16:55;;;;;;;59.60;31.67;;;;;;;6.57;78.65;100601.44;10150794;29;20176;-81
2023/03/20 20:21:58;;;;;;;35.78;20.75;;;;;;;6.74;77.86;100605.75;10142169;29;20048;-79
2023/03/20 20:27:22;;;;;;;;;;;;;;;6.44;78.75;100590.66;10157210;29;20051;-80
2023/03/20 20:32:27;;;;;;;34.72;18.70;;;;;;;6.56;79.37;100594.41;10144427;29;19934;-79
2023/03/20 20:37:30;;;;;;;33.42;18.33;;;;;;;6.59;79.37;100595.06;10149037;29;20451;-79
2023/03/20 20:42:56;;;;;;;38.25;19.38;;;;;;;6.61;79.29;100589.66;10142765;29;20408;-78
2023/03/20 20:48:06;;;;;;;44.80;26.27;;;;;;;6.74;79.71;100592.41;10143421;29;20059;-80
2023/03/20 20:53:09;;;;;;;32.08;18.85;;;;;;;6.42;81.05;100587.22;10139462;29;21143;-79
2023/03/20 20:58:13;;;;;;;40.80;21.55;;;;;;;6.47;80.82;100582.44;10148206;29;20055;-80
2023/03/20 21:03:16;;;;;;;39.40;19.58;;;;;;;6.74;79.63;100581.72;10151080;29;20601;-80
2023/03/20 21:08:19;;;;;;;59.40;27.42;;;;;;;6.96;78.70;100581.28;10143445;29;20535;-79
2023/03/20 21:13:23;;;;;;;78.43;34.95;;;;;;;6.97;78.25;100575.84;10148756;29;20050;-81
2023/03/20 21:18:26;;;;;;;40.05;21.73;;;;;;;7.00;77.99;100578.31;10151135;29;20064;-81
2023/03/20 21:23:29;;;;;;;45.55;21.75;;;;;;;7.04;77.75;100573.63;10152897;29;21290;-80
2023/03/20 21:28:33;;;;;;;34.53;19.02;;;;;;;6.77;78.65;100585.03;10155086;29;20040;-80
2023/03/20 21:33:37;;;;;;;35.53;18.50;;;;;;;6.96;78.41;100576.78;10151176;29;20118;-80
2023/03/20 21:38:40;;;;;;;37.28;18.33;;;;;;;6.79;79.66;100571.63;10138624;29;20056;-79
2023/03/20 21:44:04;;;;;;;;;;;;;;;6.97;78.94;100575.00;10150486;29;20059;-79
2023/03/20 21:49:07;;;;;;;32.45;18.98;;;;;;;7.00;78.48;100572.97;10157962;29;19974;-80
2023/03/20 21:54:29;;;;;;;;;;;;;;;6.98;77.89;100574.88;10167568;29;20048;-80
2023/03/20 21:59:56;;;;;;;48.75;22.48;;;;;;;7.23;77.47;100578.66;10200980;29;20359;-79
2023/03/20 22:05:18;;;;;;;41.83;20.02;;;;;;;7.43;76.06;100561.34;10189532;29;20075;-80
2023/03/20 22:10:42;;;;;;;44.00;16.95;;;;;;;7.29;75.70;100567.59;10179961;29;20052;-80
2023/03/20 22:16:09;;;;;;;45.70;20.35;;;;;;;7.32;75.91;100571.88;10180225;29;20526;-81
2023/03/20 22:21:32;;;;;;;48.15;19.55;;;;;;;7.40;75.10;100564.22;10188119;29;20113;-80
2023/03/20 22:26:58;;;;;;;;;;;;;;;7.76;73.67;100568.09;10181693;29;20139;-80
2023/03/20 22:32:22;;;;;;;44.58;19.83;;;;;;;7.63;74.03;100570.75;10179397;29;19929;-80
2023/03/20 22:37:45;;;;;;;26.15;12.77;;;;;;;7.35;74.72;100569.00;10183720;29;20052;-80
2023/03/20 22:43:08;;;;;;;;;;;;;;;7.53;75.11;100550.91;10195128;29;20115;-78
2023/03/20 22:48:32;;;;;;;30.83;10.95;;;;;;;7.38;75.82;100567.00;10188939;29;19923;-79
2023/03/20 22:53:35;;;;;;;24.17;11.55;;;;;;;7.57;75.59;100544.41;10192902;29;20051;-80
2023/03/20 22:58:38;;;;;;;22.13;11.45;;;;;;;7.70;75.10;100550.66;10189471;29;20099;-80
2023/03/20 23:03:42;;;;;;;20.42;9.82;;;;;;;7.88;73.89;100543.22;10193644;29;20043;-79
2023/03/20 23:08:45;;;;;;;19.70;10.10;;;;;;;7.87;73.30;100539.72;10165121;29;20052;-83
2023/03/20 23:13:55;;;;;;;27.33;11.18;;;;;;;8.02;72.27;100539.63;10163570;29;20043;-80
2023/03/20 23:19:00;;;;;;;22.83;10.80;;;;;;;7.91;72.38;100543.88;10175693;29;20105;-80
2023/03/20 23:24:03;;;;;;;23.08;11.18;;;;;;;7.97;71.92;100539.94;10186716;29;20075;-81
2023/03/20 23:29:06;;;;;;;19.95;11.32;;;;;;;8.14;71.36;100544.13;10192486;29;20052;-78
2023/03/20 23:34:10;;;;;;;23.70;10.55;;;;;;;7.93;71.49;100546.47;10194180;29;20048;-80